Time;durP1;ratioP1;P1;durP2;ratioP2;P2;SDS_P1;SDS_P2;PMS_P1;PMS_P2;Temp;Humidity;BMP_temperature;BMP_pressure;BME280_temperature;BME280_humidity;BME280_pressure;Samples;Min_cycle;Max_cycle;Signal;HPM_P1;HPM_P2
2023/04/17 00:02:10;;;;;;;22.60;15.23;;;8.70;99.90;;;;;;5012906;28;20215;-50
2023/04/17 00:04:37;;;;;;;25.93;16.87;;;8.70;99.90;;;;;;5009504;28;20200;-47
2023/04/17 00:07:04;;;;;;;20.07;15.20;;;8.70;99.90;;;;;;5022113;28;20599;-52
2023/04/17 00:09:32;;;;;;;20.33;15.77;;;8.60;99.90;;;;;;5005912;28;20425;-45
2023/04/17 00:12:00;;;;;;;22.23;16.33;;;8.60;99.90;;;;;;5008328;28;20196;-46
2023/04/17 00:14:27;;;;;;;21.27;14.93;;;8.60;99.90;;;;;;5014892;28;20203;-45
2023/04/17 00:16:54;;;;;;;23.60;15.47;;;8.60;99.90;;;;;;5016692;28;20219;-46
2023/04/17 00:19:21;;;;;;;20.77;15.87;;;8.50;99.90;;;;;;5004632;28;20228;-47
2023/04/17 00:21:48;;;;;;;22.80;16.10;;;8.50;99.90;;;;;;5023294;28;20195;-44
2023/04/17 00:24:15;;;;;;;19.67;15.50;;;8.50;99.90;;;;;;5018999;28;20952;-47
2023/04/17 00:26:42;;;;;;;23.57;16.90;;;8.50;99.90;;;;;;5013085;28;20234;-44
2023/04/17 00:29:10;;;;;;;21.73;16.27;;;8.50;99.90;;;;;;5015259;28;20200;-46
2023/04/17 00:31:37;;;;;;;21.00;15.93;;;8.50;99.90;;;;;;5017340;28;20322;-48
2023/04/17 00:34:03;;;;;;;22.97;16.03;;;8.40;99.90;;;;;;5017243;28;20204;-46
2023/04/17 00:36:31;;;;;;;21.30;15.77;;;8.40;99.90;;;;;;5025076;28;20223;-49
2023/04/17 00:38:58;;;;;;;18.47;14.77;;;8.40;99.90;;;;;;5057891;28;20214;-48
2023/04/17 00:41:25;;;;;;;21.40;15.67;;;8.40;99.90;;;;;;5030791;28;20546;-47
2023/04/17 00:43:52;;;;;;;20.87;16.20;;;8.40;99.90;;;;;;5066613;28;20209;-47
2023/04/17 00:46:20;;;;;;;20.10;15.27;;;8.40;99.90;;;;;;5046965;28;20230;-49
2023/04/17 00:48:49;;;;;;;20.37;15.73;;;8.50;99.90;;;;;;5069157;28;20198;-49
2023/04/17 00:51:16;;;;;;;27.40;16.00;;;8.50;99.90;;;;;;5024820;28;20203;-50
2023/04/17 00:53:43;;;;;;;21.30;15.20;;;8.50;99.90;;;;;;5057991;28;20198;-46
2023/04/17 00:56:11;;;;;;;21.40;16.03;;;8.40;99.90;;;;;;5065743;28;20695;-48
2023/04/17 00:58:38;;;;;;;21.43;15.20;;;8.40;99.90;;;;;;5060223;28;20194;-45
2023/04/17 01:01:06;;;;;;;20.37;15.07;;;8.40;99.90;;;;;;5070980;28;20218;-51
2023/04/17 01:03:34;;;;;;;19.87;15.27;;;8.40;99.90;;;;;;5059147;28;20209;-47
2023/04/17 01:06:02;;;;;;;21.40;15.17;;;8.40;99.90;;;;;;5027505;28;20223;-50
2023/04/17 01:08:36;;;;;;;23.50;17.03;;;8.40;99.90;;;;;;5035028;28;20184;-45
2023/04/17 01:11:03;;;;;;;19.67;15.20;;;8.40;99.90;;;;;;5047061;28;20703;-48
2023/04/17 01:13:30;;;;;;;23.77;16.47;;;8.40;99.90;;;;;;5057517;28;20306;-48
2023/04/17 01:15:57;;;;;;;21.30;15.03;;;8.40;99.90;;;;;;5040310;28;20237;-44
2023/04/17 01:18:23;;;;;;;22.30;17.07;;;8.30;99.90;;;;;;5033887;28;20202;-55
2023/04/17 01:20:51;;;;;;;21.67;16.27;;;8.30;99.90;;;;;;5044293;28;20222;-47
2023/04/17 01:23:18;;;;;;;21.80;16.40;;;8.30;99.90;;;;;;5038377;28;20195;-47
2023/04/17 01:25:46;;;;;;;23.03;16.77;;;8.20;99.90;;;;;;5050722;28;20206;-46
2023/04/17 01:28:13;;;;;;;22.70;16.60;;;8.20;99.90;;;;;;5035704;28;20206;-49
2023/04/17 01:30:40;;;;;;;23.33;16.20;;;8.20;99.90;;;;;;5053581;28;20194;-46
2023/04/17 01:33:08;;;;;;;22.47;17.27;;;8.20;99.90;;;;;;5036711;28;20220;-46
2023/04/17 01:35:36;;;;;;;22.67;16.83;;;8.20;99.90;;;;;;5034840;28;20203;-46
2023/04/17 01:38:03;;;;;;;23.43;16.20;;;8.10;99.90;;;;;;5055943;28;20198;-51
2023/04/17 01:40:30;;;;;;;26.20;17.20;;;8.10;99.90;;;;;;5063991;28;20210;-49
2023/04/17 01:42:59;;;;;;;26.07;18.13;;;8.10;99.90;;;;;;5071728;28;20198;-51
2023/04/17 01:45:29;;;;;;;24.20;18.20;;;8.00;99.90;;;;;;5055235;28;20347;-47
2023/04/17 01:47:56;;;;;;;25.60;17.97;;;8.00;99.90;;;;;;5062727;28;20230;-48
2023/04/17 01:50:23;;;;;;;24.07;17.13;;;8.00;99.90;;;;;;5036427;28;20381;-46
2023/04/17 01:52:50;;;;;;;25.37;17.50;;;8.00;99.90;;;;;;5037127;28;20195;-44
2023/04/17 01:55:17;;;;;;;27.63;17.63;;;8.00;99.90;;;;;;5066589;28;20281;-45
2023/04/17 01:57:43;;;;;;;25.83;18.17;;;7.90;99.90;;;;;;5069303;28;20226;-46
2023/04/17 02:00:13;;;;;;;23.23;17.63;;;7.90;99.90;;;;;;5036670;28;20238;-45
2023/04/17 02:02:42;;;;;;;25.07;17.40;;;7.90;99.90;;;;;;5070992;28;20201;-49
2023/04/17 02:05:31;;;;;;;25.80;17.93;;;7.90;99.90;;;;;;5062230;28;20835;-44
2023/04/17 02:08:20;;;;;;;27.53;19.67;;;7.90;99.90;;;;;;5049069;28;21854;-44
2023/04/17 02:10:47;;;;;;;25.60;18.23;;;7.90;99.90;;;;;;5070259;28;20187;-47
2023/04/17 02:13:14;;;;;;;23.53;17.17;;;7.90;99.90;;;;;;5036635;28;20179;-47
2023/04/17 02:15:42;;;;;;;28.57;17.97;;;7.90;99.90;;;;;;5060196;28;21105;-46
2023/04/17 02:18:09;;;;;;;27.00;18.57;;;7.90;99.90;;;;;;5054981;28;20198;-44
2023/04/17 02:20:37;;;;;;;23.67;17.07;;;7.80;99.90;;;;;;5062248;28;20231;-45
2023/04/17 02:23:05;;;;;;;26.17;17.77;;;7.80;99.90;;;;;;5059513;28;20203;-45
2023/04/17 02:25:50;;;;;;;21.67;16.70;;;7.90;99.90;;;;;;5067727;28;20563;-44
2023/04/17 02:28:17;;;;;;;21.67;16.17;;;7.90;99.90;;;;;;5060211;28;20190;-46
2023/04/17 02:30:46;;;;;;;27.93;17.73;;;7.80;99.90;;;;;;5033475;28;20293;-46
2023/04/17 02:33:13;;;;;;;23.37;16.70;;;7.80;99.90;;;;;;5039090;28;20211;-45
2023/04/17 02:35:40;;;;;;;21.23;16.13;;;7.80;99.90;;;;;;5066574;28;20199;-46
2023/04/17 02:38:07;;;;;;;22.87;17.63;;;7.80;99.90;;;;;;5050664;28;20202;-46
2023/04/17 02:40:34;;;;;;;23.10;16.93;;;7.80;99.90;;;;;;5042427;28;20236;-47
2023/04/17 02:43:02;;;;;;;29.63;18.97;;;7.80;99.90;;;;;;5044021;28;20206;-47
2023/04/17 02:45:29;;;;;;;28.20;18.40;;;7.80;99.90;;;;;;5036195;28;20255;-44
2023/04/17 02:47:58;;;;;;;27.77;19.33;;;7.80;99.90;;;;;;5049415;28;20577;-46
2023/04/17 02:50:25;;;;;;;28.50;18.10;;;7.80;99.90;;;;;;5045702;28;20185;-46
2023/04/17 02:53:06;;;;;;;27.03;17.77;;;7.80;99.90;;;;;;5035355;28;20230;-46
2023/04/17 02:55:54;;;;;;;26.07;17.57;;;7.70;99.90;;;;;;5043865;28;20229;-47
2023/04/17 02:58:23;;;;;;;25.33;17.60;;;7.80;99.90;;;;;;5062898;28;20190;-46
2023/04/17 03:00:51;;;;;;;25.00;17.33;;;7.80;99.90;;;;;;5036563;28;20717;-44
2023/04/17 03:03:20;;;;;;;24.47;17.80;;;7.80;99.90;;;;;;5041271;28;20298;-46
2023/04/17 03:05:47;;;;;;;22.37;17.67;;;7.80;99.90;;;;;;5066196;28;20199;-48
2023/04/17 03:08:14;;;;;;;25.87;18.33;;;7.80;99.90;;;;;;5054998;28;20209;-46
2023/04/17 03:10:45;;;;;;;24.33;18.13;;;7.70;99.90;;;;;;5025314;28;20203;-45
2023/04/17 03:13:12;;;;;;;25.53;18.40;;;7.70;99.90;;;;;;5042702;28;20281;-43
2023/04/17 03:15:40;;;;;;;24.47;18.43;;;7.70;99.90;;;;;;5063891;28;20230;-45
2023/04/17 03:18:07;;;;;;;25.10;18.47;;;7.60;99.90;;;;;;5044654;28;20287;-44
2023/04/17 03:20:35;;;;;;;26.27;18.57;;;7.60;99.90;;;;;;5047428;28;20225;-49
2023/04/17 03:23:02;;;;;;;27.67;19.60;;;7.60;99.90;;;;;;5031754;28;20209;-46
2023/04/17 03:25:29;;;;;;;28.13;19.57;;;7.60;99.90;;;;;;5042347;28;20687;-42
2023/04/17 03:27:56;;;;;;;27.70;19.53;;;7.60;99.90;;;;;;5025525;28;20221;-49
2023/04/17 03:30:31;;;;;;;28.57;19.60;;;7.60;99.90;;;;;;5051170;28;20195;-51
2023/04/17 03:33:03;;;;;;;28.20;20.67;;;7.60;99.90;;;;;;5049965;28;20201;-53
2023/04/17 03:35:31;;;;;;;30.37;20.90;;;7.60;99.90;;;;;;5062559;28;20190;-51
2023/04/17 03:38:00;;;;;;;32.57;21.77;;;7.60;99.90;;;;;;5037624;28;20307;-53
2023/04/17 03:40:26;;;;;;;31.27;21.13;;;7.50;99.90;;;;;;5042299;28;20221;-51
2023/04/17 03:42:54;;;;;;;29.53;21.40;;;7.50;99.90;;;;;;5025651;28;20203;-54
2023/04/17 03:45:21;;;;;;;32.90;22.33;;;7.50;99.90;;;;;;5042447;28;21011;-46
2023/04/17 03:47:48;;;;;;;30.53;21.07;;;7.50;99.90;;;;;;5037448;28;20709;-50
2023/04/17 03:50:15;;;;;;;31.63;22.00;;;7.50;99.90;;;;;;5035709;28;20202;-49
2023/04/17 03:52:50;;;;;;;32.53;22.47;;;7.50;99.90;;;;;;5030658;28;20782;-48
2023/04/17 03:55:19;;;;;;;30.80;21.53;;;7.50;99.90;;;;;;5043337;28;20199;-50
2023/04/17 03:57:49;;;;;;;29.40;21.60;;;7.50;99.90;;;;;;5031074;28;20228;-52
2023/04/17 04:00:20;;;;;;;31.33;20.87;;;7.50;99.90;;;;;;5041677;28;20238;-52
2023/04/17 04:02:52;;;;;;;29.27;20.87;;;7.50;99.90;;;;;;5025393;28;20530;-47
2023/04/17 04:05:24;;;;;;;30.97;21.10;;;7.50;99.90;;;;;;5033407;28;20203;-54
2023/04/17 04:07:51;;;;;;;33.13;21.60;;;7.40;99.90;;;;;;5021379;28;20429;-51
2023/04/17 04:10:38;;;;;;;31.43;21.40;;;7.50;99.90;;;;;;5060759;28;20339;-46
2023/04/17 04:13:05;;;;;;;31.43;21.63;;;7.50;99.90;;;;;;5049049;28;20691;-45
2023/04/17 04:15:32;;;;;;;33.23;22.00;;;7.50;99.90;;;;;;5050347;28;20190;-52
2023/04/17 04:18:20;;;;;;;29.83;21.73;;;7.50;99.90;;;;;;5043173;28;20218;-50
2023/04/17 04:20:49;;;;;;;34.10;22.00;;;;;;;;;;5031828;28;20315;-52
2023/04/17 04:23:23;;;;;;;28.30;20.87;;;7.30;99.90;;;;;;5037933;28;20226;-47
2023/04/17 04:25:55;;;;;;;29.00;20.47;;;7.50;99.90;;;;;;5041896;28;20890;-46
2023/04/17 04:28:38;;;;;;;26.60;19.23;;;7.50;99.90;;;;;;5029617;28;20202;-52
2023/04/17 04:31:09;;;;;;;28.57;19.33;;;7.50;99.90;;;;;;5051108;28;20191;-49
2023/04/17 04:33:39;;;;;;;26.70;18.97;;;7.30;99.90;;;;;;5024703;28;20487;-44
2023/04/17 04:36:06;;;;;;;29.33;20.33;;;7.30;99.90;;;;;;5037182;28;20226;-45
2023/04/17 04:38:34;;;;;;;24.23;18.27;;;7.50;99.90;;;;;;5036186;28;20226;-48
2023/04/17 04:41:11;;;;;;;28.67;20.20;;;7.40;99.90;;;;;;5050320;28;20259;-43
2023/04/17 04:43:40;;;;;;;30.93;21.17;;;7.40;99.90;;;;;;5028434;28;20265;-45
2023/04/17 04:46:09;;;;;;;32.63;22.73;;;7.40;99.90;;;;;;5041827;28;20309;-47
2023/04/17 04:48:41;;;;;;;34.57;23.20;;;7.50;99.90;;;;;;5026092;28;20199;-44
2023/04/17 04:51:30;;;;;;;36.23;25.00;;;7.50;99.90;;;;;;5059507;28;20567;-43
2023/04/17 04:53:58;;;;;;;35.13;23.20;;;7.50;99.90;;;;;;5047385;28;20199;-44
2023/04/17 04:56:26;;;;;;;28.47;21.63;;;7.50;99.90;;;;;;5039437;28;20233;-44
2023/04/17 04:58:54;;;;;;;30.60;23.20;;;7.50;99.90;;;;;;5046401;28;20880;-45
2023/04/17 05:01:21;;;;;;;35.67;23.57;;;7.50;99.90;;;;;;5038504;28;20540;-42
2023/04/17 05:03:49;;;;;;;32.93;23.03;;;7.50;99.90;;;;;;5062568;28;20194;-42
2023/04/17 05:06:22;;;;;;;34.43;24.40;;;7.50;99.90;;;;;;5047937;28;20218;-42
2023/04/17 05:08:55;;;;;;;38.10;24.17;;;7.50;99.90;;;;;;5037446;28;20214;-40
2023/04/17 05:11:22;;;;;;;35.87;23.50;;;7.50;99.90;;;;;;5054211;28;20197;-43
2023/04/17 05:13:51;;;;;;;38.50;24.77;;;7.50;99.90;;;;;;5045742;28;20228;-42
2023/04/17 05:16:24;;;;;;;30.63;22.37;;;7.50;99.90;;;;;;5020772;28;20218;-41
2023/04/17 05:18:51;;;;;;;29.03;20.53;;;7.50;99.90;;;;;;5049517;28;20194;-42
2023/04/17 05:21:26;;;;;;;32.70;22.80;;;7.60;99.90;;;;;;5035429;28;20477;-47
2023/04/17 05:23:54;;;;;;;32.20;22.20;;;7.60;99.90;;;;;;5042795;28;20214;-41
2023/04/17 05:26:21;;;;;;;33.57;22.77;;;7.60;99.90;;;;;;5053198;28;20221;-41
2023/04/17 05:28:50;;;;;;;33.07;23.17;;;7.60;99.90;;;;;;5038342;28;20255;-43
2023/04/17 05:31:22;;;;;;;38.13;23.83;;;7.70;99.90;;;;;;5021729;28;20839;-42
2023/04/17 05:33:50;;;;;;;30.33;21.63;;;7.70;99.90;;;;;;5045731;28;20729;-43
2023/04/17 05:36:17;;;;;;;36.53;22.90;;;7.70;99.90;;;;;;5028521;28;20244;-42
2023/04/17 05:38:45;;;;;;;32.90;22.30;;;7.80;99.90;;;;;;5064276;23;20237;-39
2023/04/17 05:41:30;;;;;;;35.57;22.40;;;7.80;99.90;;;;;;5067929;28;20229;-40
2023/04/17 05:43:58;;;;;;;36.70;22.53;;;7.80;99.90;;;;;;5073371;28;20198;-42
2023/04/17 05:46:25;;;;;;;35.87;24.97;;;7.90;99.90;;;;;;5054584;28;20216;-41
2023/04/17 05:48:52;;;;;;;36.33;23.13;;;7.90;99.90;;;;;;5050830;28;20218;-40
2023/04/17 05:51:20;;;;;;;35.57;23.80;;;7.90;99.90;;;;;;5050275;28;20199;-41
2023/04/17 05:53:48;;;;;;;37.27;24.33;;;7.90;99.90;;;;;;5058343;28;20440;-40
2023/04/17 05:56:15;;;;;;;30.83;23.03;;;8.00;99.90;;;;;;5064540;28;20224;-41
2023/04/17 05:58:41;;;;;;;35.20;24.77;;;8.00;99.90;;;;;;5038467;28;20213;-42
2023/04/17 06:01:11;;;;;;;36.03;24.47;;;8.00;99.90;;;;;;5055996;28;20280;-42
2023/04/17 06:03:39;;;;;;;40.83;25.30;;;8.10;99.90;;;;;;5052410;28;20248;-40
2023/04/17 06:06:12;;;;;;;36.63;23.73;;;8.10;99.90;;;;;;5043238;28;20273;-43
2023/04/17 06:08:39;;;;;;;37.40;24.53;;;8.20;99.90;;;;;;5072668;28;20226;-42
2023/04/17 06:11:05;;;;;;;40.17;26.67;;;8.20;99.90;;;;;;5058631;28;20210;-43
2023/04/17 06:13:33;;;;;;;41.13;25.87;;;8.30;99.90;;;;;;5046141;28;20198;-39
2023/04/17 06:16:00;;;;;;;46.23;25.57;;;8.30;99.90;;;;;;5058222;28;20214;-41
2023/04/17 06:18:51;;;;;;;42.00;26.83;;;8.20;99.90;;;;;;5066409;28;20299;-41
2023/04/17 06:21:18;;;;;;;35.57;24.57;;;8.30;99.90;;;;;;5043676;28;20222;-42
2023/04/17 06:23:45;;;;;;;36.27;24.77;;;8.40;99.90;;;;;;5051417;28;20226;-42
2023/04/17 06:26:16;;;;;;;34.30;23.70;;;8.50;99.90;;;;;;5053092;28;20293;-43
2023/04/17 06:28:43;;;;;;;38.27;25.33;;;8.60;99.90;;;;;;5051532;28;20689;-39
2023/04/17 06:31:10;;;;;;;40.43;25.43;;;8.60;99.90;;;;;;5055497;28;20194;-42
2023/04/17 06:33:38;;;;;;;40.67;23.97;;;8.70;99.90;;;;;;5042307;28;20225;-40
2023/04/17 06:36:09;;;;;;;37.10;24.03;;;8.80;99.90;;;;;;5054480;28;20211;-39
2023/04/17 06:38:49;;;;;;;36.03;23.23;;;8.90;99.90;;;;;;5041169;28;20221;-39
2023/04/17 06:41:19;;;;;;;33.53;22.63;;;8.90;99.90;;;;;;5056816;28;20218;-39
2023/04/17 06:43:46;;;;;;;36.17;23.77;;;9.00;99.90;;;;;;5065064;28;20202;-40
2023/04/17 06:46:17;;;;;;;36.40;22.33;;;9.00;99.90;;;;;;5073627;28;20201;-44
2023/04/17 06:48:43;;;;;;;36.03;20.83;;;9.10;99.90;;;;;;5070613;28;20338;-42
2023/04/17 06:51:12;;;;;;;33.00;21.47;;;9.20;99.90;;;;;;5036947;28;20288;-39
2023/04/17 06:53:39;;;;;;;30.90;20.40;;;9.30;99.90;;;;;;5055355;28;20206;-40
2023/04/17 06:56:07;;;;;;;30.63;19.63;;;9.30;99.90;;;;;;5077747;28;20185;-40
2023/04/17 06:58:42;;;;;;;34.17;20.60;;;9.40;99.90;;;;;;5070023;28;20569;-42
2023/04/17 07:01:12;;;;;;;31.13;19.93;;;9.50;99.90;;;;;;5073707;28;20214;-42
2023/04/17 07:03:40;;;;;;;26.67;18.63;;;9.50;99.90;;;;;;5069230;28;20201;-42
2023/04/17 07:06:09;;;;;;;26.13;18.97;;;9.60;99.90;;;;;;5049536;28;20673;-44
2023/04/17 07:08:37;;;;;;;25.47;19.53;;;9.70;99.90;;;;;;5068413;28;20221;-42
2023/04/17 07:11:04;;;;;;;25.97;18.77;;;9.80;99.90;;;;;;5076959;28;22542;-40
2023/04/17 07:13:31;;;;;;;24.07;18.03;;;9.90;99.90;;;;;;5075947;28;20208;-40
2023/04/17 07:16:00;;;;;;;25.60;17.97;;;10.00;99.90;;;;;;5048224;28;20586;-40
2023/04/17 07:18:47;;;;;;;23.13;15.90;;;10.10;99.90;;;;;;5068068;28;20283;-40
2023/04/17 07:21:14;;;;;;;25.23;16.40;;;10.10;99.90;;;;;;5043331;28;20226;-40
2023/04/17 07:23:42;;;;;;;23.77;17.10;;;10.10;99.90;;;;;;5062324;28;20202;-40
2023/04/17 07:26:10;;;;;;;19.53;15.07;;;10.20;99.90;;;;;;5069478;28;21522;-40
2023/04/17 07:28:37;;;;;;;21.27;14.10;;;10.30;99.90;;;;;;5064298;28;20279;-41
2023/04/17 07:31:07;;;;;;;30.20;16.27;;;10.30;99.90;;;;;;5069755;28;20229;-41
2023/04/17 07:33:54;;;;;;;20.53;15.13;;;10.30;99.90;;;;;;5065975;28;20209;-40
2023/04/17 07:36:22;;;;;;;21.57;15.20;;;10.40;99.90;;;;;;5054306;28;20280;-42
2023/04/17 07:38:51;;;;;;;22.10;14.47;;;10.50;99.90;;;;;;5068450;28;20225;-39
2023/04/17 07:41:18;;;;;;;20.37;15.43;;;10.60;99.90;;;;;;5066104;28;20357;-44
2023/04/17 07:43:44;;;;;;;20.97;14.63;;;10.70;99.90;;;;;;5064521;28;20293;-39
2023/04/17 07:46:11;;;;;;;20.50;14.80;;;10.70;99.90;;;;;;5061303;28;20210;-42
2023/04/17 07:48:40;;;;;;;24.00;15.40;;;10.70;99.90;;;;;;5065956;28;20226;-40
2023/04/17 07:51:07;;;;;;;20.67;14.27;;;10.90;99.90;;;;;;5053538;28;20775;-40
2023/04/17 07:53:36;;;;;;;19.47;14.13;;;10.90;99.90;;;;;;5068244;28;20925;-39
2023/04/17 07:56:05;;;;;;;20.47;14.40;;;11.00;99.90;;;;;;5069108;28;20285;-40
2023/04/17 07:58:34;;;;;;;22.13;14.50;;;11.20;99.90;;;;;;5071537;28;20213;-40
2023/04/17 08:01:03;;;;;;;19.70;14.00;;;11.30;99.90;;;;;;5070035;28;20225;-41
2023/04/17 08:03:32;;;;;;;19.53;13.30;;;11.50;99.90;;;;;;5061138;28;20194;-41
2023/04/17 08:05:59;;;;;;;17.77;13.27;;;11.50;99.90;;;;;;5056770;28;20197;-40
2023/04/17 08:08:26;;;;;;;17.17;12.73;;;11.60;99.90;;;;;;5063737;28;20821;-39
2023/04/17 08:10:54;;;;;;;17.97;13.87;;;11.80;99.90;;;;;;5067425;28;20202;-42
2023/04/17 08:13:22;;;;;;;16.83;12.80;;;11.90;99.90;;;;;;5066930;28;21687;-42
2023/04/17 08:16:08;;;;;;;13.77;11.80;;;11.90;99.90;;;;;;5062744;28;20633;-41
2023/04/17 08:18:38;;;;;;;16.53;12.10;;;11.80;99.90;;;;;;5065231;28;20233;-44
2023/04/17 08:21:05;;;;;;;15.07;12.50;;;11.90;99.90;;;;;;5073483;28;20248;-41
2023/04/17 08:23:33;;;;;;;14.80;11.60;;;12.00;99.90;;;;;;5055663;28;20213;-41
2023/04/17 08:26:19;;;;;;;14.23;11.43;;;12.10;99.90;;;;;;5064906;28;20543;-40
2023/04/17 08:28:48;;;;;;;15.13;11.10;;;12.10;99.90;;;;;;5059930;28;20222;-42
2023/04/17 08:31:14;;;;;;;13.10;10.40;;;12.30;99.90;;;;;;5063686;28;20557;-43
2023/04/17 08:33:41;;;;;;;15.93;12.00;;;12.40;99.90;;;;;;5068916;28;20195;-41
2023/04/17 08:36:09;;;;;;;14.93;12.10;;;12.30;99.90;;;;;;5066726;28;21735;-41
2023/04/17 08:38:36;;;;;;;16.60;11.67;;;12.30;99.90;;;;;;5066705;28;20252;-40
2023/04/17 08:41:08;;;;;;;14.17;10.90;;;12.30;99.90;;;;;;5055278;28;20230;-42
2023/04/17 08:43:36;;;;;;;15.67;10.53;;;12.50;99.90;;;;;;5059716;28;20202;-40
2023/04/17 08:46:05;;;;;;;14.67;10.47;;;12.60;99.90;;;;;;5080744;28;20197;-43
2023/04/17 08:48:32;;;;;;;13.70;11.27;;;12.70;99.90;;;;;;5058787;28;21636;-42
2023/04/17 08:50:58;;;;;;;15.57;12.30;;;12.80;99.90;;;;;;5071763;28;20221;-42
2023/04/17 08:53:25;;;;;;;18.37;12.27;;;12.80;99.90;;;;;;5044130;28;20209;-40
2023/04/17 08:55:56;;;;;;;13.50;10.77;;;12.70;99.90;;;;;;5075274;28;20280;-39
2023/04/17 08:58:25;;;;;;;14.73;11.03;;;12.70;99.90;;;;;;5036318;28;20210;-40
2023/04/17 09:00:51;;;;;;;14.57;9.77;;;12.80;99.90;;;;;;5076978;28;20190;-42
2023/04/17 09:03:20;;;;;;;11.47;9.50;;;12.90;99.90;;;;;;5058341;28;20229;-40
2023/04/17 09:05:47;;;;;;;12.83;10.57;;;12.90;99.90;;;;;;5063534;28;20200;-43
2023/04/17 09:08:32;;;;;;;12.43;11.13;;;13.10;99.90;;;;;;5050571;28;22299;-42
2023/04/17 09:11:00;;;;;;;13.70;10.10;;;13.00;99.90;;;;;;5062964;28;20198;-39
2023/04/17 09:13:28;;;;;;;10.77;8.97;;;12.90;99.90;;;;;;5063131;28;20189;-42
2023/04/17 09:16:05;;;;;;;11.33;8.83;;;13.10;99.90;;;;;;5076751;28;20206;-40
2023/04/17 09:18:35;;;;;;;14.33;9.23;;;13.10;99.90;;;;;;5070413;28;20271;-44
2023/04/17 09:21:03;;;;;;;11.37;8.87;;;13.20;99.90;;;;;;5068493;28;20217;-39
2023/04/17 09:23:31;;;;;;;13.20;9.10;;;13.30;99.90;;;;;;5060203;28;20925;-41
2023/04/17 09:26:08;;;;;;;11.60;9.20;;;13.40;99.90;;;;;;5051712;28;20225;-39
2023/04/17 09:28:38;;;;;;;11.00;8.70;;;13.40;99.90;;;;;;5065508;28;20253;-42
2023/04/17 09:31:23;;;;;;;10.77;8.27;;;13.40;99.90;;;;;;5069536;28;20610;-39
2023/04/17 09:33:57;;;;;;;10.83;8.27;;;13.40;99.90;;;;;;5072877;28;20221;-40
2023/04/17 09:36:45;;;;;;;14.80;8.90;;;13.30;99.90;;;;;;5060694;28;20744;-40
2023/04/17 09:39:19;;;;;;;12.80;8.60;;;13.30;99.90;;;;;;5047629;28;20206;-36
2023/04/17 09:41:46;;;;;;;12.43;8.93;;;13.30;99.90;;;;;;5063254;28;20277;-40
2023/04/17 09:44:25;;;;;;;13.30;8.70;;;13.40;99.90;;;;;;5060642;28;20265;-41
2023/04/17 09:46:53;;;;;;;11.20;8.60;;;13.40;99.90;;;;;;5060204;28;20289;-42
2023/04/17 09:49:28;;;;;;;13.47;9.20;;;13.50;99.90;;;;;;5066386;28;20246;-40
2023/04/17 09:51:56;;;;;;;12.73;10.30;;;13.50;99.90;;;;;;5050597;28;20230;-41
2023/04/17 09:54:24;;;;;;;11.67;9.37;;;13.50;99.90;;;;;;5026420;28;22971;-41
2023/04/17 09:56:54;;;;;;;13.40;10.13;;;13.40;99.90;;;;;;5071741;28;20560;-42
2023/04/17 09:59:22;;;;;;;16.40;9.80;;;13.50;99.90;;;;;;5044260;28;20845;-46
2023/04/17 10:01:50;;;;;;;12.77;9.43;;;13.50;99.90;;;;;;5058577;28;20259;-44
2023/04/17 10:04:17;;;;;;;13.60;10.13;;;13.60;99.90;;;;;;5065530;28;20189;-42
2023/04/17 10:06:46;;;;;;;13.30;10.43;;;13.70;99.90;;;;;;5068186;28;20612;-41
2023/04/17 10:09:14;;;;;;;16.10;11.00;;;13.80;99.90;;;;;;5062259;28;20189;-39
2023/04/17 10:11:43;;;;;;;17.87;12.03;;;13.90;99.90;;;;;;5064852;28;20209;-40
2023/04/17 10:14:13;;;;;;;12.93;10.97;;;14.00;99.90;;;;;;5078542;28;20557;-39
2023/04/17 10:16:42;;;;;;;14.67;10.80;;;14.00;99.90;;;;;;5070042;28;20677;-43
2023/04/17 10:19:29;;;;;;;15.27;10.80;;;13.90;99.90;;;;;;5055241;28;20207;-39
2023/04/17 10:22:30;;;;;;;13.97;11.80;;;13.80;99.90;;;;;;5053219;28;20206;-41
2023/04/17 10:25:18;;;;;;;15.40;11.17;;;13.70;99.90;;;;;;5062386;28;20201;-41
2023/04/17 10:27:53;;;;;;;13.77;10.80;;;13.90;99.90;;;;;;5076493;28;20272;-40
2023/04/17 10:30:21;;;;;;;12.97;10.87;;;14.00;99.90;;;;;;5078443;28;20972;-40
2023/04/17 10:33:19;;;;;;;14.80;11.70;;;14.00;99.90;;;;;;5056104;28;20194;-39
2023/04/17 10:35:46;;;;;;;16.80;11.67;;;14.00;99.90;;;;;;5066386;28;20210;-42
2023/04/17 10:38:17;;;;;;;19.60;10.77;;;13.90;99.90;;;;;;5063475;28;20225;-39
2023/04/17 10:40:44;;;;;;;12.50;10.07;;;14.00;99.90;;;;;;5075454;28;20285;-44
2023/04/17 10:43:33;;;;;;;12.73;9.40;;;14.10;99.90;;;;;;5067525;28;21042;-42
2023/04/17 10:46:03;;;;;;;10.70;9.43;;;13.90;99.90;;;;;;5072067;28;20738;-40
2023/04/17 10:48:36;;;;;;;12.23;9.30;;;13.90;99.90;;;;;;5049429;28;20230;-40
2023/04/17 10:51:42;;;;;;;14.27;10.57;;;13.90;99.90;;;;;;5081608;28;20246;-41
2023/04/17 10:54:14;;;;;;;11.77;10.23;;;13.90;99.90;;;;;;5061251;28;20262;-41
2023/04/17 10:56:43;;;;;;;13.00;9.53;;;13.90;99.90;;;;;;5084919;28;20213;-43
2023/04/17 10:59:11;;;;;;;9.93;7.80;;;13.90;99.90;;;;;;5048775;28;20198;-42
2023/04/17 11:01:56;;;;;;;8.50;7.57;;;14.00;99.90;;;;;;5069661;28;20191;-39
2023/04/17 11:04:28;;;;;;;9.43;6.90;;;14.10;99.90;;;;;;5051246;28;20198;-44
2023/04/17 11:06:56;;;;;;;8.87;5.93;;;14.10;99.90;;;;;;5075605;28;20190;-40
2023/04/17 11:09:28;;;;;;;7.00;5.60;;;14.20;99.90;;;;;;5071203;28;20705;-45
2023/04/17 11:11:57;;;;;;;6.40;5.57;;;14.20;98.60;;;;;;5059998;28;20673;-40
2023/04/17 11:14:25;;;;;;;8.13;6.03;;;14.10;97.90;;;;;;5068988;28;20198;-41
2023/04/17 11:16:52;;;;;;;7.43;6.23;;;14.10;97.30;;;;;;5061762;28;20230;-39
2023/04/17 11:19:20;;;;;;;8.70;5.90;;;14.20;95.80;;;;;;5063499;28;20206;-39
2023/04/17 11:21:48;;;;;;;6.60;5.90;;;14.10;94.60;;;;;;5073796;28;20281;-41
2023/04/17 11:24:22;;;;;;;6.53;5.47;;;14.00;93.00;;;;;;5068746;28;20400;-42
2023/04/17 11:26:51;;;;;;;8.03;6.00;;;14.00;92.90;;;;;;5066181;28;20272;-45
2023/04/17 11:29:20;;;;;;;7.70;5.50;;;14.10;91.90;;;;;;5042956;28;20222;-39
2023/04/17 11:31:48;;;;;;;7.00;4.83;;;14.10;92.00;;;;;;5065514;28;20202;-42
2023/04/17 11:34:16;;;;;;;8.90;5.17;;;14.10;92.00;;;;;;5055320;28;20285;-41
2023/04/17 11:36:48;;;;;;;8.67;5.57;;;14.10;92.00;;;;;;5069421;28;20206;-42
2023/04/17 11:39:16;;;;;;;6.23;5.50;;;14.10;91.30;;;;;;5071101;28;20501;-42
2023/04/17 11:41:45;;;;;;;6.40;5.57;;;14.10;92.20;;;;;;5062374;28;20206;-44
2023/04/17 11:44:13;;;;;;;10.33;4.93;;;14.20;92.30;;;;;;5049624;28;20279;-42
2023/04/17 11:46:40;;;;;;;9.60;4.67;;;14.20;91.40;;;;;;5080895;28;20670;-40
2023/04/17 11:49:10;;;;;;;8.53;5.47;;;14.20;90.90;;;;;;5067899;28;20261;-41
2023/04/17 11:51:37;;;;;;;12.70;5.70;;;14.20;90.00;;;;;;5068285;28;20220;-39
2023/04/17 11:54:04;;;;;;;8.00;5.20;;;14.20;90.00;;;;;;5075807;28;20186;-42
2023/04/17 11:56:31;;;;;;;6.43;5.37;;;14.30;89.90;;;;;;5063446;28;21003;-42
2023/04/17 11:58:59;;;;;;;9.77;5.80;;;14.30;89.20;;;;;;5047820;28;20217;-43
2023/04/17 12:02:11;;;;;;;8.63;5.67;;;14.20;89.90;;;;;;5067436;28;20207;-42
2023/04/17 12:04:39;;;;;;;11.60;6.47;;;14.10;87.70;;;;;;5063276;28;20253;-41
2023/04/17 12:07:08;;;;;;;9.20;5.83;;;14.10;90.20;;;;;;5066719;28;20237;-42
2023/04/17 12:09:35;;;;;;;7.20;6.27;;;14.10;90.80;;;;;;5070153;28;20338;-43
2023/04/17 12:12:24;;;;;;;8.17;6.33;;;14.10;91.10;;;;;;5055762;28;20704;-41
2023/04/17 12:14:51;;;;;;;10.70;7.10;;;14.20;91.80;;;;;;5055503;28;20260;-40
2023/04/17 12:17:20;;;;;;;10.77;6.67;;;14.20;91.90;;;;;;5073346;28;20291;-41
2023/04/17 12:19:47;;;;;;;8.47;6.30;;;14.30;91.60;;;;;;5064718;28;21135;-42
2023/04/17 12:22:33;;;;;;;7.27;6.17;;;14.20;91.30;;;;;;5058014;28;20201;-40
2023/04/17 12:25:00;;;;;;;8.23;5.97;;;14.20;91.10;;;;;;5060853;28;20224;-41
2023/04/17 12:27:28;;;;;;;8.63;6.37;;;14.10;90.10;;;;;;5068441;28;20221;-41
2023/04/17 12:29:54;;;;;;;9.40;6.07;;;14.10;88.60;;;;;;5061400;28;20209;-39
2023/04/17 12:32:22;;;;;;;12.03;6.23;;;14.10;88.30;;;;;;5053679;28;20230;-43
2023/04/17 12:34:50;;;;;;;10.50;5.90;;;14.20;87.70;;;;;;5070823;28;20190;-40
2023/04/17 12:37:18;;;;;;;9.90;6.17;;;14.20;87.00;;;;;;5051332;28;20260;-42
2023/04/17 12:39:45;;;;;;;9.27;6.07;;;14.30;86.60;;;;;;5042333;28;20183;-39
2023/04/17 12:42:13;;;;;;;10.90;6.17;;;14.40;85.50;;;;;;5063114;28;20285;-44
2023/04/17 12:44:39;;;;;;;8.13;6.40;;;14.40;85.60;;;;;;5053120;28;20226;-40
2023/04/17 12:47:06;;;;;;;7.73;6.10;;;14.40;85.80;;;;;;5035260;28;20214;-40
2023/04/17 12:49:32;;;;;;;9.27;6.13;;;14.50;84.60;;;;;;5069742;28;20198;-42
2023/04/17 12:52:01;;;;;;;9.07;5.77;;;14.50;85.20;;;;;;5054883;28;20201;-44